createdAt,value
2022-11-02T00:00:45.469Z,3.04
2022-11-02T00:15:45.448Z,3.17
2022-11-02T00:30:45.399Z,3.14
2022-11-02T00:45:45.569Z,2.51
2022-11-02T01:00:45.522Z,2.45
2022-11-02T01:15:45.677Z,2.44
2022-11-02T01:30:45.579Z,2.65
2022-11-02T01:45:45.644Z,3.35
2022-11-02T02:00:45.795Z,2.92
2022-11-02T02:15:45.754Z,3.34
2022-11-02T02:30:45.637Z,2.73
2022-11-02T02:45:45.676Z,3.05
2022-11-02T03:00:46.234Z,3.12
2022-11-02T03:15:45.871Z,3.32
2022-11-02T03:30:45.760Z,3.13
2022-11-02T03:45:45.824Z,2.83
2022-11-02T04:00:45.869Z,2.84
2022-11-02T04:15:45.931Z,3.17
2022-11-02T04:30:47.111Z,2.98
2022-11-02T04:45:45.896Z,3.82
2022-11-02T05:00:45.935Z,3.70
2022-11-02T05:15:46.074Z,4.76
2022-11-02T05:30:46.170Z,4.61
2022-11-02T05:45:46.115Z,4.00
2022-11-02T06:00:46.120Z,4.11
2022-11-02T06:15:46.126Z,4.42
2022-11-02T06:30:46.387Z,4.58
2022-11-02T06:45:46.187Z,3.96
2022-11-02T07:00:46.379Z,4.51
2022-11-02T07:15:46.261Z,4.63
2022-11-02T07:30:46.372Z,4.85
2022-11-02T07:45:46.317Z,3.72
2022-11-02T08:00:46.541Z,4.59
2022-11-02T08:15:46.455Z,5.76
2022-11-02T08:30:46.492Z,5.72
2022-11-02T08:46:14.684Z,6.36
2022-11-02T09:00:46.568Z,5.73
2022-11-02T09:15:46.764Z,5.08
2022-11-02T09:30:46.594Z,5.86
2022-11-02T09:45:46.640Z,5.75
2022-11-02T10:00:46.632Z,5.11
2022-11-02T10:15:46.599Z,5.21
2022-11-02T10:30:46.793Z,4.17
2022-11-02T10:45:46.860Z,4.68
2022-11-02T11:00:46.664Z,4.22
2022-11-02T11:15:47.319Z,5.94
2022-11-02T11:30:59.369Z,6.23
2022-11-02T11:45:46.827Z,4.82
2022-11-02T12:00:46.906Z,5.34
2022-11-02T12:15:47.042Z,6.12
2022-11-02T12:30:46.870Z,4.45
2022-11-02T12:45:47.091Z,4.50
2022-11-02T13:00:47.070Z,4.65
2022-11-02T13:15:47.136Z,3.96
2022-11-02T13:30:47.725Z,4.06
2022-11-02T13:45:47.429Z,3.16
2022-11-02T14:00:47.151Z,2.84
2022-11-02T14:15:47.341Z,2.96
2022-11-02T14:30:47.257Z,3.33
2022-11-02T14:45:47.384Z,3.58
2022-11-02T15:00:47.457Z,2.69
2022-11-02T15:15:47.511Z,2.13
2022-11-02T15:30:47.420Z,1.40
2022-11-02T15:45:50.547Z,1.54
2022-11-02T16:00:47.606Z,1.18
2022-11-02T16:15:47.373Z,1.24
2022-11-02T16:30:47.380Z,1.24
2022-11-02T16:45:47.587Z,1.13
2022-11-02T17:00:47.659Z,0.74
2022-11-02T17:15:47.722Z,0.94
2022-11-02T17:30:47.750Z,1.15
2022-11-02T17:45:47.716Z,1.26
2022-11-02T18:00:47.712Z,1.51
2022-11-02T18:15:47.627Z,2.04
2022-11-02T18:30:47.814Z,1.87
2022-11-02T18:45:48.159Z,1.91
2022-11-02T19:00:47.796Z,2.23
2022-11-02T19:15:47.862Z,2.31
2022-11-02T19:30:47.885Z,2.30
2022-11-02T19:45:47.866Z,2.17
2022-11-02T20:00:48.368Z,2.70
2022-11-02T20:15:48.067Z,2.43
2022-11-02T20:30:48.073Z,2.75
2022-11-02T20:45:48.134Z,2.84
2022-11-02T21:00:48.158Z,3.14
2022-11-02T21:15:48.135Z,3.37
2022-11-02T21:30:48.177Z,2.82
2022-11-02T21:45:48.110Z,2.91
2022-11-02T22:00:48.424Z,2.95
2022-11-02T22:15:48.146Z,2.75
2022-11-02T22:30:48.412Z,2.59
2022-11-02T22:45:48.209Z,2.93
2022-11-02T23:00:48.494Z,2.77
2022-11-02T23:15:48.459Z,3.38
2022-11-02T23:30:49.587Z,3.46
2022-11-02T23:45:48.355Z,3.25
